Flight Track Log - Related Links

Times and Time Zones

All times are in EDT time to prevent confusion due to time zone crossing. See the EJA396 flight status page for this flight to view local times or setup timezone preferences in your user account.

Time Position Orientation Groundspeed Altitude Reporting Facility
EDT Latitude Longitude Course Direction KTS MPH feet Rate Location/Type
Wed 10:48:54 AM 37.3667 -121.9333 322° Northwest 171 197 800  Level Northern Cal TRACON
Wed 10:49:54 AM 37.4167 -121.9833 322° Northwest 206 237 3,700 2,132 Climbing Northern Cal TRACON
Wed 10:50:55 AM 37.4167 -121.9167 90° East 230 265 5,100 1,339 Climbing Northern Cal TRACON
Wed 10:51:55 AM 37.3833 -121.8667 130° Southeast 218 251 6,400 2,050 Climbing Northern Cal TRACON
Wed 10:52:55 AM 37.3333 -121.8167 142° Southeast 241 277 9,200 2,698 Climbing Northern Cal TRACON
Wed 10:54:24 AM 37.3556 -121.9353 283° West 308 354 13,100 2,600 Climbing Oakland Center
Wed 10:55:25 AM 37.4472 -121.9178 North 343 395 15,700 2,293 Climbing Oakland Center
Wed 10:56:27 AM 37.5439 -121.8814 17° North 361 415 17,800 1,902 Climbing Oakland Center
Wed 10:57:28 AM 37.6456 -121.8456 16° North 379 436 19,600 1,869 Climbing Oakland Center
Wed 10:58:29 AM 37.7531 -121.8061 16° North 399 459 21,600 2,000 Climbing Oakland Center
Wed 10:59:31 AM 37.8636 -121.7650 16° North 414 476 23,700 2,195 Climbing Oakland Center
Wed 11:00:32 AM 38.0000 -121.7169 16° North 425 489 26,100 2,066 Climbing Oakland Center
Wed 11:01:33 AM 38.1158 -121.6742 16° North 436 502 27,900 1,610 Climbing Oakland Center
Wed 11:02:35 AM 38.2347 -121.6314 16° North 446 513 29,400 1,317 Climbing Oakland Center
Wed 11:03:36 AM 38.3581 -121.5850 16° North 462 532 30,600 1,180 Climbing Oakland Center
Wed 11:04:37 AM 38.4694 -121.5053 29° Northeast 488 562 31,800 1,180 Climbing Oakland Center
Wed 11:05:38 AM 38.5517 -121.3686 52° Northeast 478 550 33,000 1,171 Climbing Oakland Center
Wed 11:06:40 AM 38.6314 -121.2283 54° Northeast 485 558 34,200 1,073 Climbing Oakland Center
Wed 11:07:41 AM 38.7239 -121.0803 51° Northeast 501 577 35,200 1,180 Climbing Oakland Center
Wed 11:08:42 AM 38.8233 -120.9575 44° Northeast 504 580 36,600 1,220 Climbing Oakland Center
Wed 11:09:44 AM 38.9211 -120.8353 44° Northeast 493 567 37,700 1,024 Climbing Oakland Center
Wed 11:10:45 AM 39.0181 -120.7153 44° Northeast 486 559 38,700 639 Climbing Oakland Center
Wed 11:11:46 AM 39.0789 -120.5625 63° Northeast 480 552 39,000 146 Climbing Oakland Center
Wed 11:12:48 AM 39.1508 -120.3725 64° Northeast 495 570 39,000  Level Oakland Center
Wed 11:13:49 AM 39.2117 -120.2089 64° Northeast 505 581 39,000  Level Oakland Center
Wed 11:14:50 AM 39.2717 -120.0594 63° Northeast 514 592 39,000 195 Level Oakland Center
Wed 11:15:52 AM 39.3325 -119.8961 64° Northeast 506 582 39,400 634 Climbing Oakland Center
Wed 11:16:53 AM 39.3931 -119.7353 64° Northeast 500 575 40,300 787 Climbing Oakland Center
Wed 11:17:54 AM 39.4614 -119.5467 65° Northeast 485 558 41,000 341 Climbing Oakland Center
Wed 11:18:56 AM 39.5189 -119.3878 65° Northeast 485 558 41,000  Level Oakland Center
Wed 11:19:57 AM 39.5783 -119.2236 65° Northeast 495 570 41,000  Level Oakland Center
Wed 11:20:59 AM 39.6400 -119.0575 64° Northeast 504 580 41,000  Level Oakland Center
Wed 11:22:00 AM 39.7008 -118.8906 65° Northeast 506 582 41,000  Level Oakland Center
Wed 11:23:01 AM 39.7594 -118.7236 65° Northeast 502 578 41,000  Level Oakland Center
Wed 11:24:03 AM 39.8206 -118.5583 64° Northeast 502 578 41,000  Level Oakland Center
Wed 11:25:04 AM 39.8781 -118.3917 66° East 502 578 41,000  Level Oakland Center
Wed 11:26:06 AM 39.9364 -118.2261 65° Northeast 501 577 41,000  Level Oakland Center
Wed 11:27:07 AM 39.9939 -118.0617 65° Northeast 498 573 41,000  Level Oakland Center
Wed 11:28:09 AM 40.0519 -117.8956 65° Northeast 501 577 41,000  Level Oakland Center
Wed 11:29:10 AM 40.1092 -117.7294 66° East 501 577 41,000  Level Oakland Center
Wed 11:29:59 AM 40.1622 -117.5736 66° East 500 575 41,000  Level Salt Lake Center
Wed 11:31:01 AM 40.2164 -117.4156 66° East 499 574 41,000  Level Salt Lake Center
Wed 11:32:03 AM 40.2800 -117.2292 66° East 501 577 41,000  Level Salt Lake Center
Wed 11:33:05 AM 40.3339 -117.0703 66° East 500 575 41,000  Level Salt Lake Center
Wed 11:34:07 AM 40.3922 -116.8989 66° East 501 577 41,000  Level Salt Lake Center
Wed 11:35:09 AM 40.4483 -116.7297 66° East 504 580 41,000  Level Salt Lake Center
Wed 11:36:11 AM 40.5097 -116.5444 66° East 505 581 41,000  Level Salt Lake Center
Wed 11:37:13 AM 40.5622 -116.3844 67° East 500 575 41,000  Level Salt Lake Center
Wed 11:38:15 AM 40.6247 -116.1956 66° East 503 579 41,000  Level Salt Lake Center
Wed 11:39:17 AM 40.6756 -116.0328 68° East 504 580 41,000  Level Salt Lake Center
Wed 11:40:19 AM 40.7375 -115.8444 66° East 502 578 41,000  Level Salt Lake Center
Wed 11:41:21 AM 40.7903 -115.6811 67° East 506 582 41,000  Level Salt Lake Center
Wed 11:42:23 AM 40.8494 -115.4903 68° East 505 581 41,000  Level Salt Lake Center
Wed 11:43:25 AM 40.9022 -115.3269 67° East 504 580 41,000  Level Salt Lake Center
Wed 11:44:27 AM 40.9633 -115.1369 67° East 504 580 41,000  Level Salt Lake Center
Wed 11:45:29 AM 41.0156 -114.9722 67° East 505 581 41,000  Level Salt Lake Center
Wed 11:46:31 AM 41.0742 -114.7831 68° East 507 583 41,000  Level Salt Lake Center
Wed 11:47:33 AM 41.1286 -114.6128 67° East 504 580 41,000  Level Salt Lake Center
Wed 11:48:35 AM 41.1797 -114.4394 69° East 505 581 41,000  Level Salt Lake Center
Wed 11:49:37 AM 41.2325 -114.2678 68° East 503 579 41,000  Level Salt Lake Center
Wed 11:50:39 AM 41.2861 -114.0950 68° East 505 581 41,000  Level Salt Lake Center
Wed 11:51:42 AM 41.3369 -113.9219 69° East 505 581 41,000  Level Salt Lake Center
Wed 11:52:44 AM 41.3722 -113.7069 78° East 500 575 41,000  Level Salt Lake Center
Wed 11:53:46 AM 41.3836 -113.5236 85° East 497 572 41,000  Level Salt Lake Center
Wed 11:54:48 AM 41.3950 -113.3400 85° East 500 575 41,000  Level Salt Lake Center
Wed 11:55:50 AM 41.4067 -113.1564 85° East 500 575 41,000  Level Salt Lake Center
Wed 11:56:52 AM 41.4189 -112.9722 85° East 501 577 41,000  Level Salt Lake Center
Wed 11:57:54 AM 41.4294 -112.7881 86° East 499 574 41,000  Level Salt Lake Center
Wed 11:58:56 AM 41.4425 -112.5661 85° East 500 575 41,000  Level Salt Lake Center
Wed 11:59:58 AM 41.4522 -112.3800 86° East 503 579 41,000  Level Salt Lake Center
Wed 12:01:00 PM 41.4633 -112.1947 85° East 501 577 41,000  Level Salt Lake Center
Wed 12:02:02 PM 41.4728 -112.0094 86° East 499 574 41,000  Level Salt Lake Center
Wed 12:03:04 PM 41.4825 -111.8231 86° East 500 575 41,000  Level Salt Lake Center
Wed 12:04:06 PM 41.4931 -111.6364 86° East 501 577 41,000  Level Salt Lake Center
Wed 12:05:08 PM 41.5008 -111.4500 87° East 501 577 41,000  Level Salt Lake Center
Wed 12:06:10 PM 41.5094 -111.2639 86° East 503 579 41,000  Level Salt Lake Center
Wed 12:07:12 PM 41.5181 -111.0400 87° East 502 578 41,000  Level Salt Lake Center
Wed 12:08:14 PM 41.5267 -110.8603 86° East 504 580 41,000  Level Salt Lake Center
Wed 12:09:16 PM 41.5353 -110.6517 87° East 505 581 41,000  Level Salt Lake Center
Wed 12:10:18 PM 41.5422 -110.4722 87° East 506 582 41,000  Level Salt Lake Center
Wed 12:11:20 PM 41.5506 -110.2628 87° East 506 582 41,000  Level Salt Lake Center
Wed 12:12:22 PM 41.5567 -110.0833 87° East 506 582 41,000  Level Salt Lake Center
Wed 12:13:24 PM 41.5631 -109.9036 87° East 506 582 41,000  Level Salt Lake Center
Wed 12:14:27 PM 41.5706 -109.6928 87° East 509 586 41,000  Level Salt Lake Center
Wed 12:15:29 PM 41.5761 -109.5122 88° East 508 585 41,000  Level Salt Lake Center
Wed 12:16:31 PM 41.5831 -109.2994 87° East 509 586 41,000  Level Salt Lake Center
Wed 12:17:33 PM 41.5892 -109.1133 87° East 513 590 41,000  Level Salt Lake Center
Wed 12:18:35 PM 41.6008 -108.8969 86° East 515 593 41,000  Level Salt Lake Center
Wed 12:19:37 PM 41.6144 -108.7144 84° East 513 590 41,000  Level Salt Lake Center
Wed 12:20:39 PM 41.6278 -108.5333 84° East 513 590 41,000  Level Salt Lake Center
Wed 12:21:41 PM 41.6431 -108.3222 84° East 512 589 41,000  Level Salt Lake Center
Wed 12:22:43 PM 41.6558 -108.1389 85° East 515 593 41,000  Level Salt Lake Center
Wed 12:23:45 PM 41.6722 -107.9269 84° East 515 593 41,000  Level Salt Lake Center
Wed 12:24:47 PM 41.6839 -107.7464 85° East 511 588 41,000  Level Salt Lake Center
Wed 12:25:49 PM 41.6981 -107.5347 85° East 512 589 41,000  Level Salt Lake Center
Wed 12:26:51 PM 41.7103 -107.3533 85° East 512 589 41,000  Level Salt Lake Center
Wed 12:27:53 PM 41.7233 -107.1400 85° East 516 594 41,000  Level Salt Lake Center
Wed 12:28:55 PM 41.7342 -106.9592 85° East 513 590 41,000  Level Salt Lake Center
Wed 12:29:57 PM 41.7478 -106.7475 85° East 512 589 41,000  Level Salt Lake Center
Wed 12:30:59 PM 41.7567 -106.5792 86° East 509 586 41,000  Level Salt Lake Center
Wed 12:32:01 PM 41.7664 -106.3642 86° East 516 594 41,000  Level Salt Lake Center
Wed 12:33:03 PM 41.7767 -106.1828 86° East 513 590 41,000  Level Salt Lake Center
Wed 12:34:29 PM 41.7944 -105.9072 85° East 518 596 41,000  Level Denver Center
Wed 12:35:31 PM 41.8044 -105.6939 86° East 517 595 41,000  Level Denver Center
Wed 12:36:33 PM 41.8133 -105.5100 86° East 518 596 41,000  Level Denver Center
Wed 12:37:35 PM 41.8239 -105.2953 86° East 516 594 41,000  Level Denver Center
Wed 12:38:37 PM 41.8319 -105.1106 87° East 519 597 41,000  Level Denver Center
Wed 12:39:39 PM 41.8417 -104.8939 86° East 523 602 41,000  Level Denver Center
Wed 12:40:41 PM 41.8489 -104.7094 87° East 521 600 41,000  Level Denver Center
Wed 12:41:43 PM 41.8572 -104.4942 87° East 521 600 41,000  Level Denver Center
Wed 12:42:58 PM 41.8672 -104.2469 87° East 524 603 41,000  Level Denver Center
Wed 12:44:00 PM 41.8739 -104.0608 87° East 523 602 41,000  Level Denver Center
Wed 12:45:02 PM 41.8819 -103.8444 87° East 522 601 41,000  Level Denver Center
Wed 12:46:04 PM 41.8881 -103.6589 87° East 522 601 41,000  Level Denver Center
Wed 12:47:06 PM 41.8950 -103.4744 87° East 519 597 41,000  Level Denver Center
Wed 12:48:08 PM 41.9239 -103.2622 80° East 516 594 41,000  Level Denver Center
Wed 12:49:10 PM 41.9497 -103.0808 79° East 517 595 41,000  Level Denver Center
Wed 12:50:12 PM 41.9794 -102.8694 79° East 518 596 41,000  Level Denver Center
Wed 12:51:14 PM 42.0028 -102.6903 80° East 512 589 41,000  Level Denver Center
Wed 12:52:16 PM 42.0319 -102.4792 79° East 514 592 41,000  Level Denver Center
Wed 12:53:18 PM 42.0553 -102.2983 80° East 513 590 41,000  Level Denver Center
Wed 12:54:20 PM 42.0836 -102.0881 80° East 518 596 41,000  Level Denver Center
Wed 12:55:22 PM 42.1058 -101.9086 80° East 510 587 41,000  Level Denver Center
Wed 12:56:24 PM 42.1333 -101.6942 80° East 518 596 41,000  Level Denver Center
Wed 12:57:26 PM 42.1564 -101.5139 80° East 512 589 41,000  Level Denver Center
Wed 12:58:28 PM 42.1819 -101.3036 81° East 510 587 41,000  Level Denver Center
Wed 12:59:31 PM 42.2042 -101.1208 81° East 512 589 41,000  Level Denver Center
Wed 01:00:33 PM 42.2294 -100.9083 81° East 512 589 41,000  Level Denver Center
Wed 01:01:35 PM 42.2514 -100.7261 81° East 513 590 41,000  Level Denver Center
Wed 01:02:37 PM 42.2753 -100.5122 81° East 514 592 41,000  Level Denver Center
Wed 01:03:39 PM 42.2958 -100.3289 81° East 515 593 41,000  Level Denver Center
Wed 01:04:41 PM 42.3194 -100.1169 81° East 513 590 41,000  Level Denver Center
Wed 01:05:43 PM 42.3397 -99.9342 81° East 512 589 41,000  Level Denver Center
Wed 01:06:45 PM 42.3597 -99.7525 81° East 512 589 41,000  Level Denver Center
Wed 01:07:47 PM 42.3828 -99.5406 82° East 510 587 41,000  Level Denver Center
Wed 01:08:49 PM 42.4019 -99.3589 82° East 511 588 41,000  Level Denver Center
Wed 01:09:51 PM 42.4231 -99.1436 82° East 513 590 41,000  Level Denver Center
Wed 01:10:53 PM 42.4425 -98.9622 82° East 512 589 41,000  Level Denver Center
Wed 01:11:23 PM 42.4506 -98.8897 81° East 513 590 41,000  Level Minneapolis Center
Wed 01:12:25 PM 42.4747 -98.6606 82° East 514 592 41,000  Level Minneapolis Center
Wed 01:13:27 PM 42.5014 -98.4703 79° East 514 592 41,000  Level Minneapolis Center
Wed 01:14:30 PM 42.5264 -98.2797 80° East 514 592 41,000  Level Minneapolis Center
Wed 01:15:32 PM 42.5536 -98.0900 79° East 514 592 41,000  Level Minneapolis Center
Wed 01:16:34 PM 42.5786 -97.8975 80° East 516 594 41,000  Level Minneapolis Center
Wed 01:17:36 PM 42.6089 -97.6672 80° East 518 596 41,000  Level Minneapolis Center
Wed 01:18:38 PM 42.6342 -97.4769 80° East 513 590 41,000  Level Minneapolis Center
Wed 01:19:40 PM 42.6589 -97.2853 80° East 514 592 41,000  Level Minneapolis Center
Wed 01:20:41 PM 42.6789 -97.1319 80° East 514 592 41,000  Level Minneapolis Center
Wed 01:21:44 PM 42.7100 -96.8903 80° East 512 589 41,000  Level Minneapolis Center
Wed 01:22:46 PM 42.7325 -96.7006 81° East 511 588 41,000  Level Minneapolis Center
Wed 01:23:48 PM 42.7558 -96.5114 80° East 511 588 41,000  Level Minneapolis Center
Wed 01:25:02 PM 42.7786 -96.3225 81° East 510 587 41,000  Level Minneapolis Center
Wed 01:26:05 PM 42.8094 -96.0569 81° East 511 588 41,000  Level Minneapolis Center
Wed 01:27:07 PM 42.8319 -95.8683 81° East 510 587 41,000  Level Minneapolis Center
Wed 01:28:09 PM 42.8531 -95.6806 81° East 507 583 41,000  Level Minneapolis Center
Wed 01:29:11 PM 42.8744 -95.4911 81° East 507 583 41,000  Level Minneapolis Center
Wed 01:30:13 PM 42.8956 -95.3053 81° East 504 580 41,000  Level Minneapolis Center
Wed 01:31:15 PM 42.9200 -95.0769 82° East 507 583 41,000  Level Minneapolis Center
Wed 01:33:07 PM 42.9528 -94.7542 82° East 506 582 41,000  Level Chicago Center
Wed 01:34:09 PM 42.9772 -94.5283 82° East 506 582 41,000  Level Chicago Center
Wed 01:35:11 PM 42.9953 -94.3403 82° East 506 582 41,000  Level Chicago Center
Wed 01:36:13 PM 43.0147 -94.1553 82° East 499 574 41,000  Level Chicago Center
Wed 01:37:16 PM 43.0325 -93.9656 83° East 504 580 41,000  Level Chicago Center
Wed 01:38:18 PM 43.0506 -93.7794 82° East 502 578 41,000  Level Chicago Center
Wed 01:39:20 PM 43.0728 -93.5553 82° East 499 574 41,000  Level Chicago Center
Wed 01:40:22 PM 43.0894 -93.3689 83° East 499 574 41,000  Level Chicago Center
Wed 01:41:24 PM 43.0972 -93.1803 87° East 500 575 41,000  Level Chicago Center
Wed 01:42:26 PM 43.1019 -92.9911 88° East 502 578 41,000  Level Chicago Center
Wed 01:43:28 PM 43.1061 -92.8019 88° East 500 575 41,000  Level Chicago Center
Wed 01:44:30 PM 43.1100 -92.5764 89° East 502 578 41,000  Level Chicago Center
Wed 01:45:32 PM 43.1133 -92.3883 89° East 499 574 41,000  Level Chicago Center
Wed 01:46:34 PM 43.1167 -92.1983 89° East 501 577 41,000  Level Chicago Center
Wed 01:47:37 PM 43.1211 -92.0083 88° East 501 577 41,000  Level Chicago Center
Wed 01:48:39 PM 43.1247 -91.8189 88° East 499 574 41,000  Level Chicago Center
Wed 01:49:41 PM 43.1269 -91.6286 89° East 499 574 41,000  Level Chicago Center
Wed 01:50:43 PM 43.1300 -91.4022 89° East 495 570 41,000  Level Chicago Center
Wed 01:51:45 PM 43.1317 -91.2133 89° East 496 571 41,000  Level Chicago Center
Wed 01:52:47 PM 43.1322 -91.0261 90° East 496 571 41,000  Level Chicago Center
Wed 01:53:49 PM 43.1347 -90.8400 89° East 493 567 41,000  Level Chicago Center
Wed 01:54:51 PM 43.1347 -90.6539 90° East 492 566 41,000  Level Chicago Center
Wed 01:55:53 PM 43.1344 -90.4308 90° East 490 564 41,000  Level Chicago Center
Wed 01:56:55 PM 43.1356 -90.2592 89° East 487 560 41,000  Level Chicago Center
Wed 01:57:58 PM 43.1336 -90.0719 91° East 490 564 41,000  Level Chicago Center
Wed 01:59:00 PM 43.1344 -89.8553 90° East 488 562 41,000  Level Chicago Center
Wed 02:00:05 PM 43.1325 -89.6692 91° East 489 563 41,000  Level Chicago Center
Wed 02:01:07 PM 43.1317 -89.4836 90° East 488 562 41,000  Level Chicago Center
Wed 02:02:09 PM 43.1289 -89.2658 91° East 490 564 41,000  Level Chicago Center
Wed 02:03:11 PM 43.1258 -89.0789 91° East 494 568 41,000  Level Chicago Center
Wed 02:04:13 PM 43.1239 -88.8931 91° East 491 565 41,000  Level Chicago Center
Wed 02:05:15 PM 43.1219 -88.7092 91° East 488 562 41,000  Level Chicago Center
Wed 02:06:17 PM 43.1183 -88.4917 91° East 496 571 41,000  Level Chicago Center
Wed 02:07:20 PM 43.1164 -88.3083 91° East 489 563 41,000  Level Chicago Center
Wed 02:08:22 PM 43.1233 -88.1225 87° East 491 565 41,000  Level Chicago Center
Wed 02:09:24 PM 43.1328 -87.9367 86° East 492 566 41,000  Level Chicago Center
Wed 02:10:26 PM 43.1411 -87.7517 86° East 490 564 41,000  Level Chicago Center
Wed 02:11:28 PM 43.1508 -87.5347 86° East 490 564 41,000  Level Chicago Center
Wed 02:12:30 PM 43.1586 -87.3417 87° East 488 562 41,000  Level Chicago Center
Wed 02:13:32 PM 43.1667 -87.1561 87° East 491 565 41,000  Level Chicago Center
Wed 02:14:34 PM 43.1739 -86.9700 87° East 490 564 41,000  Level Chicago Center
Wed 02:15:36 PM 43.1808 -86.7844 87° East 489 563 41,000  Level Chicago Center
Wed 02:16:38 PM 43.1878 -86.5981 87° East 489 563 41,000  Level Chicago Center
Wed 02:17:41 PM 43.1950 -86.4111 87° East 490 564 41,000  Level Chicago Center
Wed 02:18:43 PM 43.2011 -86.2225 87° East 492 566 41,000  Level Chicago Center
Wed 02:19:45 PM 43.2089 -85.9922 87° East 494 568 41,000  Level Chicago Center
Wed 02:20:47 PM 43.2131 -85.8006 88° East 493 567 41,000  Level Chicago Center
Wed 02:21:49 PM 43.2175 -85.6117 88° East 492 566 41,000  Level Chicago Center
Wed 02:22:51 PM 43.2225 -85.4250 88° East 491 565 41,000  Level Chicago Center
Wed 02:23:53 PM 43.2272 -85.2392 88° East 487 560 41,000  Level Chicago Center
Wed 02:24:55 PM 43.2308 -85.0528 88° East 490 564 41,000  Level Chicago Center
Wed 02:25:57 PM 43.2342 -84.8672 89° East 488 562 41,000  Level Chicago Center
Wed 02:26:59 PM 43.2383 -84.6444 88° East 486 559 41,000  Level Chicago Center
Wed 02:28:02 PM 43.2411 -84.4592 89° East 488 562 41,000  Level Chicago Center
Wed 02:28:40 PM 43.2428 -84.3511 89° East 483 556 41,000  Level Cleveland Center
Wed 02:29:40 PM 43.2444 -84.1686 89° East 478 550 41,000  Level Cleveland Center
Wed 02:30:40 PM 43.2464 -83.9636 89° East 478 550 41,000  Level Cleveland Center
Wed 02:31:40 PM 43.2492 -83.7983 89° East 473 544 41,000  Level Cleveland Center
Wed 02:32:40 PM 43.2497 -83.6158 90° East 478 550 41,000  Level Cleveland Center
Wed 02:33:40 PM 43.2522 -83.4364 89° East 473 544 41,000  Level Cleveland Center
Wed 02:34:40 PM 43.2525 -83.2511 90° East 478 550 41,000  Level Cleveland Center
Wed 02:35:40 PM 43.2544 -83.0689 89° East 478 550 41,000  Level Cleveland Center
Wed 02:36:40 PM 43.2542 -82.8806 90° East 478 550 41,000  Level Cleveland Center
Wed 02:37:40 PM 43.2514 -82.7039 91° East 471 542 41,000  Level Cleveland Center
Wed 02:38:40 PM 43.2275 -82.5206 100° East 477 549 41,000  Level Cleveland Center
Wed 02:39:40 PM 43.2053 -82.3433 100° East 477 549 41,000  Level Cleveland Center
Wed 02:40:44 PM 43.1667 -82.1167 103° East 480 552 41,000  Level Toronto Center
Wed 02:41:44 PM 43.1333 -81.9333 104° East 480 552 41,000  Level Toronto Center
Wed 02:42:44 PM 43.1167 -81.7500 97° East 470 541 41,000  Level Toronto Center
Wed 02:43:44 PM 43.1000 -81.6000 99° East 470 541 41,000  Level Toronto Center
Wed 02:44:44 PM 43.0667 -81.4167 104° East 470 541 41,000  Level Toronto Center
Wed 02:45:44 PM 43.0333 -81.2333 104° East 470 541 41,000  Level Toronto Center
Wed 02:46:44 PM 43.0167 -81.0667 98° East 480 552 41,000  Level Toronto Center
Wed 02:47:44 PM 43.0167 -80.8667 90° East 480 552 41,000  Level Toronto Center
Wed 02:48:44 PM 43.0167 -80.7000 90° East 480 552 41,000  Level Toronto Center
Wed 02:49:44 PM 43.0167 -80.5167 90° East 480 552 41,000  Level Toronto Center
Wed 02:50:44 PM 43.0000 -80.3333 97° East 480 552 41,000  Level Toronto Center
Wed 02:51:44 PM 43.0000 -80.1500 90° East 470 541 41,000  Level Toronto Center
Wed 02:52:44 PM 42.9833 -79.9667 97° East 470 541 41,000  Level Toronto Center
Wed 02:53:44 PM 42.9833 -79.8000 90° East 470 541 41,000  Level Toronto Center
Wed 02:54:44 PM 42.9667 -79.6333 98° East 470 541 41,000  Level Toronto Center
Wed 02:55:44 PM 42.9667 -79.4333 90° East 470 541 41,000  Level Toronto Center
Wed 02:57:28 PM 42.9581 -79.1619 92° East 475 547 41,000  Level Cleveland Center
Wed 02:58:28 PM 42.9472 -78.9836 95° East 475 547 41,000  Level Cleveland Center
Wed 02:59:28 PM 42.9383 -78.8050 94° East 475 547 41,000  Level Cleveland Center
Wed 03:00:28 PM 42.9292 -78.6239 94° East 475 547 41,000  Level Cleveland Center
Wed 03:01:28 PM 42.9261 -78.4425 91° East 475 547 41,000  Level Cleveland Center
Wed 03:02:28 PM 42.9228 -78.2697 91° East 470 541 41,000  Level Cleveland Center
Wed 03:03:28 PM 42.9189 -78.0883 92° East 470 541 41,000  Level Cleveland Center
Wed 03:04:28 PM 42.9150 -77.9069 92° East 475 547 41,000  Level Cleveland Center
Wed 03:05:29 PM 42.9128 -77.7286 91° East 475 547 41,000  Level Cleveland Center
Wed 03:06:29 PM 42.9081 -77.5472 92° East 475 547 41,000  Level Cleveland Center
Wed 03:07:29 PM 42.9011 -77.3689 93° East 475 547 41,000  Level Cleveland Center
Wed 03:09:47 PM 42.8886 -76.9408 92° East 476 548 41,000  Level Boston Center
Wed 03:11:00 PM 42.8847 -76.7792 92° East 476 548 41,000  Level Boston Center
Wed 03:11:58 PM 42.8781 -76.5661 92° East 476 548 41,000  Level Boston Center
Wed 03:12:58 PM 42.8717 -76.3897 93° East 476 548 41,000  Level Boston Center
Wed 03:13:59 PM 42.8819 -76.2119 85° East 476 548 41,000  Level Boston Center
Wed 03:15:00 PM 42.9022 -76.0344 81° East 470 541 41,000  Level Boston Center
Wed 03:16:00 PM 42.9244 -75.8572 80° East 470 541 41,000  Level Boston Center
Wed 03:17:01 PM 42.9461 -75.6825 80° East 475 547 41,000  Level Boston Center
Wed 03:17:59 PM 42.9656 -75.5047 81° East 475 547 41,000  Level Boston Center
Wed 03:18:59 PM 42.9850 -75.3267 81° East 470 541 41,000  Level Boston Center
Wed 03:19:59 PM 43.0039 -75.1517 82° East 470 541 41,000  Level Boston Center
Wed 03:21:00 PM 43.0225 -74.9706 82° East 470 541 41,000  Level Boston Center
Wed 03:22:01 PM 43.0450 -74.7925 80° East 470 541 41,000  Level Boston Center
Wed 03:22:58 PM 43.0633 -74.6114 82° East 476 548 41,000  Level Boston Center
Wed 03:23:58 PM 43.0853 -74.4300 81° East 481 554 41,000  Level Boston Center
Wed 03:24:59 PM 43.1008 -74.2486 83° East 481 554 41,000  Level Boston Center
Wed 03:25:59 PM 43.1225 -74.0672 81° East 481 554 41,000  Level Boston Center
Wed 03:27:00 PM 43.1394 -73.8883 83° East 481 554 41,000  Level Boston Center
Wed 03:28:00 PM 43.1581 -73.7122 82° East 481 554 41,000  Level Boston Center
Wed 03:28:58 PM 43.1722 -73.5675 82° East 481 554 41,000  Level Boston Center
Wed 03:29:58 PM 43.1992 -73.3286 81° East 481 554 41,000  Level Boston Center
Wed 03:30:59 PM 43.2172 -73.1439 82° East 481 554 41,000  Level Boston Center
Wed 03:31:59 PM 43.2350 -72.9586 82° East 481 554 41,000  Level Boston Center
Wed 03:32:59 PM 43.2522 -72.7764 83° East 481 554 41,000 -347 Level Boston Center
Wed 03:34:00 PM 43.2672 -72.5911 84° East 481 554 40,300 -1,100 Descending Boston Center
Wed 03:34:59 PM 43.2842 -72.4031 83° East 481 554 38,800 -1,462 Descending Boston Center
Wed 03:35:59 PM 43.2983 -72.2147 84° East 486 559 37,400 -1,289 Descending Boston Center
Wed 03:37:00 PM 43.3144 -72.0319 83° East 486 559 36,200 -1,200 Descending Boston Center
Wed 03:37:59 PM 43.3306 -71.8464 83° East 480 552 35,000 -1,099 Descending Boston Center
Wed 03:39:11 PM 43.3439 -71.6636 84° East 480 552 33,800 -896 Descending Boston Center
Wed 03:40:13 PM 43.3633 -71.4633 82° East 486 559 33,000 -403 Descending Boston Center
Wed 03:41:10 PM 43.3803 -71.2747 83° East 486 559 33,000  Level Boston Center
Wed 03:42:11 PM 43.3969 -71.0828 83° East 486 559 33,000 -198 Level Boston Center
Wed 03:43:11 PM 43.4092 -70.8939 85° East 491 565 32,600 -1,041 Descending Boston Center
Wed 03:44:12 PM 43.3917 -70.7086 97° East 491 565 30,900 -1,736 Descending Boston Center
Wed 03:45:12 PM 43.3061 -70.5683 130° Southeast 457 526 29,100 -1,850 Descending Boston Center
Wed 03:46:12 PM 43.1842 -70.4981 157° South 435 501 27,200 -1,866 Descending Boston Center
Wed 03:47:11 PM 43.0581 -70.4425 162° South 444 511 25,400 -1,714 Descending Boston Center
Wed 03:48:11 PM 42.9406 -70.3867 161° South 453 521 23,800 -1,475 Descending Boston Center
Wed 03:49:13 PM 42.8228 -70.3339 162° South 453 521 22,400 -1,513 Descending Boston Center
Wed 03:50:10 PM 42.7092 -70.2814 161° South 446 513 20,800 -1,641 Descending Boston Center
Wed 03:51:10 PM 42.5936 -70.2289 162° South 440 506 19,200 -1,770 Descending Boston Center
Wed 03:52:12 PM 42.4886 -70.1933 166° South 420 483 17,200 -1,770 Descending Boston Center
Wed 03:53:12 PM 42.3817 -70.1578 166° South 410 472 15,600 -1,550 Descending Boston Center
Wed 03:54:12 PM 42.2808 -70.1250 166° South 393 452 14,100 -1,569 Descending Boston Center
Wed 03:55:22 PM 42.1656 -70.0872 166° South 372 428 12,200 -1,708 Descending Boston Center
Wed 03:56:22 PM 42.0711 -70.0572 167° South 360 414 10,400 -1,736 Descending Boston Center
Wed 03:57:23 PM 41.9789 -70.0411 173° South 323 372 8,700 -1,587 Descending Boston Center
Wed 03:58:23 PM 41.8997 -70.0442 182° South 300 345 7,200 -1,488 Descending Boston Center
Wed 03:59:24 PM 41.8247 -70.0442 180° South 283 326 5,700 -1,109 Descending Boston Center
Wed 04:00:22 PM 41.7539 -70.0469 182° South 271 312 5,000 -321 Descending Boston Center
Wed 04:01:35 PM 41.6811 -70.0494 181° South 266 306 5,000 -135 Level Boston Center
Wed 04:02:35 PM 41.5917 -70.0531 182° South 271 312 4,700 -900 Descending Boston Center
Wed 04:03:35 PM 41.5203 -70.0306 167° South 271 312 3,200 -1,339 Descending Boston Center
Wed 04:04:36 PM 41.4528 -70.0028 163° South 265 305 2,000 -807 Descending Boston Center
Wed 04:05:34 PM 41.3939 -69.9772 162° South 247 284 1,600 -183 Descending Boston Center
Wed 04:06:47 PM 41.3433 -69.9544 161° South 218 251 1,600 -90 Level Boston Center
Wed 04:07:47 PM 41.3089 -69.9944 221° Southwest 133 153 1,400 -403 Descending Boston Center
Wed 04:08:46 PM 41.2867 -70.0256 226° Southwest 128 147 800 -504 Descending Boston Center
Wed 04:09:46 PM 41.2703 -70.0456 223° Southwest 121 139 400 5,058 Descending Boston Center
Wed 04:10:47 PM 41.2397 -70.0772 218° Southwest 121 139 11,000 5,256 Climbing Boston Center
Wed 04:11:47 PM 41.2133 -70.1056 219° Southwest 121 139 11,000  Level Boston Center
Wed 04:13:00 PM 41.2500 -70.0500 37° Northeast  Level FlightAware Approximate
Wed 04:20:00 PM 41.2531 -70.0603 37° Northeast  Level Estimated
Wed 04:21:00 PM 41.2531 -70.0603 37° Northeast  Level Estimated
Wed 04:22:00 PM 41.2531 -70.0603 37° Northeast  Level Estimated
Wed 04:23:00 PM 41.2531 -70.0603 37° Northeast  Level Estimated
Wed 04:24:00 PM 41.2531 -70.0603 37° Northeast  Level Estimated
Wed 04:25:00 PM 41.2531 -70.0603 37° Northeast  Level Estimated
Wed 04:26:00 PM 41.2531 -70.0603 37° Northeast  Level Estimated

Login

Don't have an account? Register now (free) for customized features, flight alerts, and more!